Delta Virtual Airport Information Service

Dublin Airport

ICAO: EIDW Country: Ireland
Latitude: 53.4214 Longitude: -6.27
Latest Arrival : EIN153 (EGLL-EIDW) Latest Departure : DAL155 (5) (EIDW-KBOS)


WX CaptureLIVE
Data provided by noaa.gov | Fetched at 09:16:17

METAR : EIDW 041500Z 07010KT 9999 FEW018 BKN024 05/00 Q1027 NOSIG

TAF : EIDW 041100Z 0412/0512 04010KT 9999 FEW012 BKN020 BECMG 0412/0415 07010KT BECMG 0420/0422 10008KT PROB30 TEMPO 0422/0505 BKN012


Runway Data for EIDW
Data provided by openaviationdata.com

Runway ID Mag Var Hdg Length Elevation Surface ILS Freq ILS Id ILS Slope
10 -5 100° 8842 ft 242 ft Asphalt 108.9 IDE 3
16 -5 162° 6824 ft 242 ft Asphalt 111.5 IAC 3
28 -5 280° 8842 ft 242 ft Asphalt 111.35 IDW 3
34 -5 342° 6824 ft 242 ft Asphalt -- -- --

Dublin Airport, Ireland
Use only for reference purposes



Not for navigational purposes.